Time;durP1;ratioP1;P1;durP2;ratioP2;P2;SDS_P1;SDS_P2;PMS_P1;PMS_P2;Temp;Humidity;BMP_temperature;BMP_pressure;BME280_temperature;BME280_humidity;BME280_pressure;Samples;Min_cycle;Max_cycle;Signal;HPM_P1;HPM_P2
2023/01/29 00:01:27;;;;;;;28.38;15.63;;;0.40;99.90;;;;;;5043978;28;20051;-39
2023/01/29 00:03:53;;;;;;;29.85;16.65;;;0.40;99.90;;;;;;5041919;28;20021;-39
2023/01/29 00:06:19;;;;;;;30.05;16.75;;;0.30;99.90;;;;;;5034229;28;20195;-48
2023/01/29 00:08:45;;;;;;;31.55;16.67;;;0.30;99.90;;;;;;5040765;28;20048;-40
2023/01/29 00:11:11;;;;;;;33.00;16.00;;;0.40;99.90;;;;;;5037767;28;20025;-39
2023/01/29 00:13:37;;;;;;;29.45;16.02;;;0.40;99.90;;;;;;5039010;28;20036;-39
2023/01/29 00:16:03;;;;;;;26.67;15.40;;;0.30;99.90;;;;;;5038460;28;20052;-50
2023/01/29 00:18:30;;;;;;;33.40;17.25;;;0.30;99.90;;;;;;5037113;28;20027;-47
2023/01/29 00:20:55;;;;;;;27.08;14.85;;;0.40;99.90;;;;;;5038022;28;20494;-39
2023/01/29 00:23:21;;;;;;;30.92;17.35;;;0.30;99.90;;;;;;5037826;28;20100;-39
2023/01/29 00:25:47;;;;;;;31.67;16.25;;;0.30;99.90;;;;;;5037467;28;20025;-39
2023/01/29 00:28:13;;;;;;;33.42;16.80;;;0.30;99.90;;;;;;5037239;28;20017;-39
2023/01/29 00:30:39;;;;;;;29.55;16.63;;;0.30;99.90;;;;;;5038465;28;20029;-39
2023/01/29 00:33:05;;;;;;;30.38;16.17;;;0.30;99.90;;;;;;5041624;28;20041;-39
2023/01/29 00:35:31;;;;;;;30.00;17.00;;;0.30;99.90;;;;;;5038949;28;20017;-39
2023/01/29 00:37:58;;;;;;;31.85;17.08;;;0.30;99.90;;;;;;5044704;28;20018;-38
2023/01/29 00:40:25;;;;;;;27.83;16.08;;;0.40;99.90;;;;;;5041183;28;20031;-39
2023/01/29 00:45:35;;;;;;;31.70;16.20;;;0.40;99.90;;;;;;5038507;28;20071;-38
2023/01/29 00:48:02;;;;;;;30.38;17.92;;;0.40;99.90;;;;;;5038492;28;20025;-39
2023/01/29 00:50:28;;;;;;;29.02;15.65;;;0.40;99.90;;;;;;5037226;28;20029;-39
2023/01/29 00:52:54;;;;;;;31.38;17.90;;;0.40;99.90;;;;;;5038817;28;20496;-39
2023/01/29 00:55:20;;;;;;;28.70;16.38;;;0.40;99.90;;;;;;5037795;28;20266;-39
2023/01/29 00:57:46;;;;;;;31.92;17.70;;;0.40;99.90;;;;;;5035723;28;20113;-39
2023/01/29 01:00:14;;;;;;;33.58;17.13;;;0.40;99.90;;;;;;5037492;28;20021;-39
2023/01/29 01:05:23;;;;;;;32.55;16.67;;;0.40;99.90;;;;;;5038688;28;20087;-40
2023/01/29 01:07:52;;;;;;;33.38;17.38;;;0.40;99.90;;;;;;5045755;28;20425;-50
2023/01/29 01:10:20;;;;;;;32.90;17.80;;;0.40;99.90;;;;;;5041883;28;20455;-49
2023/01/29 01:12:49;;;;;;;35.22;18.52;;;0.30;99.90;;;;;;5043258;28;20075;-49
2023/01/29 01:15:16;;;;;;;29.45;16.35;;;0.30;99.90;;;;;;5040293;28;20021;-49
2023/01/29 01:17:41;;;;;;;33.17;17.70;;;0.40;99.90;;;;;;5040114;28;20032;-50
2023/01/29 01:20:08;;;;;;;31.23;17.45;;;0.40;99.90;;;;;;5042460;28;20029;-50
2023/01/29 01:22:34;;;;;;;40.22;17.42;;;0.40;99.90;;;;;;5040654;28;20025;-52
2023/01/29 01:25:00;;;;;;;28.75;16.13;;;0.40;99.90;;;;;;5040285;28;20025;-50
2023/01/29 01:27:25;;;;;;;34.70;17.05;;;0.50;99.90;;;;;;5039685;28;20104;-51
2023/01/29 01:29:51;;;;;;;31.08;16.73;;;0.60;99.90;;;;;;5041036;28;20470;-52
2023/01/29 01:32:16;;;;;;;30.92;16.77;;;0.60;99.90;;;;;;5044558;28;20052;-52
2023/01/29 01:34:44;;;;;;;33.53;17.85;;;0.60;99.90;;;;;;5043294;28;20021;-50
2023/01/29 01:37:10;;;;;;;32.55;17.35;;;0.60;99.90;;;;;;5044727;28;20052;-50
2023/01/29 01:39:35;;;;;;;31.88;17.92;;;0.60;99.90;;;;;;5048202;28;20048;-48
2023/01/29 01:42:01;;;;;;;28.55;16.13;;;0.60;99.90;;;;;;5041339;28;20044;-49
2023/01/29 01:44:53;;;;;;;35.85;16.73;;;0.60;99.90;;;;;;5039028;28;20013;-50
2023/01/29 01:47:25;;;;;;;28.88;17.08;;;0.70;99.90;;;;;;5040996;28;20439;-48
2023/01/29 01:49:52;;;;;;;31.92;16.83;;;0.70;99.90;;;;;;5040662;28;20092;-48
2023/01/29 01:52:19;;;;;;;27.30;15.25;;;0.60;99.90;;;;;;5041752;28;20036;-48
2023/01/29 01:54:45;;;;;;;33.40;18.90;;;0.60;99.90;;;;;;5040732;28;20516;-50
2023/01/29 01:57:17;;;;;;;27.77;16.60;;;0.60;99.90;;;;;;5039451;28;20030;-49
2023/01/29 01:59:49;;;;;;;27.73;15.48;;;0.70;99.90;;;;;;5040556;28;20021;-49
2023/01/29 02:10:38;;;;;;;30.10;15.68;;;0.60;99.90;;;;;;5044247;28;20029;-49
2023/01/29 02:13:06;;;;;;;26.45;15.35;;;0.70;99.90;;;;;;5040066;28;20080;-48
2023/01/29 02:15:32;;;;;;;30.85;15.10;;;0.60;99.90;;;;;;5040826;28;20435;-48
2023/01/29 02:17:58;;;;;;;29.70;15.93;;;0.60;99.90;;;;;;5039842;28;20026;-48
2023/01/29 02:20:27;;;;;;;29.10;16.05;;;0.60;99.90;;;;;;5039951;28;20064;-49
2023/01/29 02:23:04;;;;;;;34.60;15.60;;;0.60;99.90;;;;;;5039045;28;20470;-49
2023/01/29 02:25:56;;;;;;;31.52;16.20;;;0.60;99.90;;;;;;5041048;28;20028;-49
2023/01/29 02:28:47;;;;;;;34.70;17.33;;;0.60;99.90;;;;;;5040571;28;20014;-49
2023/01/29 02:31:32;;;;;;;32.90;15.23;;;0.60;99.90;;;;;;5006072;28;20390;-50
2023/01/29 02:34:11;;;;;;;28.38;16.20;;;0.60;99.90;;;;;;5043229;28;20052;-49
2023/01/29 02:37:03;;;;;;;28.10;15.73;;;0.60;99.90;;;;;;5043976;28;20389;-51
2023/01/29 02:39:35;;;;;;;29.35;15.82;;;0.60;99.90;;;;;;5048085;28;20282;-48
2023/01/29 02:42:20;;;;;;;31.17;16.38;;;0.60;99.90;;;;;;5040086;28;20021;-49
2023/01/29 02:45:06;;;;;;;33.15;16.02;;;0.60;99.90;;;;;;5039304;28;20017;-51
2023/01/29 02:47:59;;;;;;;27.13;15.23;;;0.60;99.90;;;;;;5040972;28;20059;-49
2023/01/29 02:50:48;;;;;;;26.35;15.57;;;0.60;99.90;;;;;;5040296;28;20188;-51
2023/01/29 02:53:16;;;;;;;32.47;16.48;;;0.60;99.90;;;;;;5039270;28;20383;-51
2023/01/29 02:56:01;;;;;;;31.73;17.38;;;0.60;99.90;;;;;;5039599;28;20403;-50
2023/01/29 02:58:37;;;;;;;31.52;16.55;;;0.60;99.90;;;;;;5041189;28;20096;-49
2023/01/29 03:01:10;;;;;;;30.83;16.50;;;0.60;99.90;;;;;;5040795;28;20387;-50
2023/01/29 03:03:41;;;;;;;31.17;16.23;;;0.60;99.90;;;;;;5042341;28;20082;-50
2023/01/29 03:06:19;;;;;;;30.83;15.88;;;0.60;99.90;;;;;;5039267;28;20075;-50
2023/01/29 03:09:13;;;;;;;30.30;17.55;;;0.60;99.90;;;;;;5046870;28;20013;-50
2023/01/29 03:11:43;;;;;;;37.78;17.27;;;0.60;99.90;;;;;;5039246;28;20017;-50
2023/01/29 03:14:18;;;;;;;31.08;17.63;;;0.50;99.90;;;;;;5041314;28;20033;-40
2023/01/29 03:16:51;;;;;;;31.25;16.70;;;0.50;99.90;;;;;;5039654;28;20384;-40
2023/01/29 03:19:33;;;;;;;32.90;16.90;;;0.50;99.90;;;;;;5037276;28;20018;-40
2023/01/29 03:22:03;;;;;;;36.60;17.05;;;0.60;99.90;;;;;;5038834;28;20107;-40
2023/01/29 03:33:51;;;;;;;32.28;16.92;;;0.60;99.90;;;;;;5041830;28;20032;-39
2023/01/29 03:36:44;;;;;;;37.83;19.30;;;0.70;99.90;;;;;;5039032;28;20024;-39
2023/01/29 03:39:12;;;;;;;33.53;17.52;;;0.60;99.90;;;;;;5046675;28;20485;-39
2023/01/29 03:41:47;;;;;;;35.85;18.75;;;0.50;99.90;;;;;;5039400;28;20096;-39
2023/01/29 03:44:25;;;;;;;37.38;18.63;;;0.50;99.90;;;;;;5039699;28;20017;-38
2023/01/29 03:46:58;;;;;;;40.33;21.15;;;0.50;99.90;;;;;;5039706;28;20527;-38
2023/01/29 03:49:47;;;;;;;39.38;19.48;;;0.50;99.90;;;;;;5038978;28;20036;-38
2023/01/29 03:52:26;;;;;;;36.10;19.17;;;0.50;99.90;;;;;;5039834;28;20546;-39
2023/01/29 03:55:05;;;;;;;36.53;18.90;;;0.40;99.90;;;;;;5039037;28;20033;-39
2023/01/29 03:57:44;;;;;;;42.25;20.27;;;0.30;99.90;;;;;;5039819;28;20028;-39
2023/01/29 04:00:20;;;;;;;37.08;19.58;;;0.30;99.90;;;;;;5039958;28;20017;-39
2023/01/29 04:02:57;;;;;;;40.63;21.45;;;0.30;99.90;;;;;;5044829;28;20016;-39
2023/01/29 04:05:28;;;;;;;37.65;19.70;;;0.30;99.90;;;;;;5039706;28;20111;-39
2023/01/29 04:08:03;;;;;;;40.22;20.88;;;0.30;99.90;;;;;;5046578;28;20428;-39
2023/01/29 04:10:34;;;;;;;37.05;19.02;;;0.30;99.90;;;;;;5041429;28;20036;-39
2023/01/29 04:13:05;;;;;;;41.97;20.70;;;0.30;99.90;;;;;;5038741;28;20029;-39
2023/01/29 04:15:36;;;;;;;40.72;18.95;;;0.30;99.90;;;;;;5038756;28;20020;-39
2023/01/29 04:18:02;;;;;;;39.95;20.23;;;0.20;99.90;;;;;;5038620;28;20025;-39
2023/01/29 04:20:28;;;;;;;42.13;20.50;;;0.20;99.90;;;;;;5037569;28;20540;-51
2023/01/29 04:22:53;;;;;;;36.58;20.42;;;0.20;99.90;;;;;;5039817;28;20525;-49
2023/01/29 04:25:27;;;;;;;37.42;20.20;;;0.20;99.90;;;;;;5037156;28;20089;-48
2023/01/29 04:28:25;;;;;;;36.35;18.75;;;0.20;99.90;;;;;;5042257;28;20114;-39
2023/01/29 04:30:59;;;;;;;40.15;20.52;;;0.20;99.90;;;;;;5039781;28;20014;-39
2023/01/29 04:33:33;;;;;;;48.55;20.95;;;0.20;99.90;;;;;;5041417;28;20053;-39
2023/01/29 04:36:05;;;;;;;44.58;21.38;;;0.20;99.90;;;;;;5037776;28;20017;-38
2023/01/29 04:38:46;;;;;;;43.42;21.58;;;0.20;99.90;;;;;;5049004;28;20398;-39
2023/01/29 04:41:11;;;;;;;;;;;0.20;99.90;;;;;;5037528;28;20025;-38
2023/01/29 04:43:49;;;;;;;38.67;19.75;;;0.20;99.90;;;;;;5038865;28;20289;-38
2023/01/29 04:46:47;;;;;;;41.90;18.95;;;0.20;99.90;;;;;;5039823;28;20029;-38
2023/01/29 04:49:39;;;;;;;41.60;21.52;;;0.20;99.90;;;;;;5042524;28;20071;-38
2023/01/29 04:52:18;;;;;;;44.63;20.95;;;0.20;99.90;;;;;;5041801;28;20033;-38
2023/01/29 04:54:53;;;;;;;42.35;20.42;;;0.20;99.90;;;;;;5041696;28;20120;-38
2023/01/29 04:57:30;;;;;;;42.67;21.42;;;0.30;99.90;;;;;;5041428;28;20029;-38
2023/01/29 05:00:02;;;;;;;45.55;19.73;;;0.30;99.90;;;;;;5041013;28;20014;-38
2023/01/29 05:02:30;;;;;;;44.05;20.20;;;0.30;99.90;;;;;;5046249;28;20024;-38
2023/01/29 05:04:58;;;;;;;40.15;20.38;;;0.30;99.90;;;;;;5042012;28;20112;-38
2023/01/29 05:07:24;;;;;;;42.42;20.80;;;0.30;99.90;;;;;;5048028;28;20025;-38
2023/01/29 05:09:50;;;;;;;41.42;21.25;;;0.30;99.90;;;;;;5046515;28;20438;-38
2023/01/29 05:12:17;;;;;;;40.28;19.67;;;0.30;99.90;;;;;;5042783;28;20029;-39
2023/01/29 05:14:45;;;;;;;40.95;20.88;;;0.30;99.90;;;;;;5040088;28;20434;-39
2023/01/29 05:17:18;;;;;;;37.10;19.02;;;0.30;99.90;;;;;;5040651;28;20025;-39
2023/01/29 05:19:45;;;;;;;45.67;21.20;;;0.20;99.90;;;;;;5042031;28;20119;-39
2023/01/29 05:22:14;;;;;;;41.25;20.33;;;0.20;99.90;;;;;;5043042;28;20074;-39
2023/01/29 05:24:39;;;;;;;38.60;20.02;;;0.20;99.90;;;;;;5040858;28;20363;-38
2023/01/29 05:29:50;;;;;;;42.65;20.08;;;0.20;99.90;;;;;;5044205;28;20082;-38
2023/01/29 05:32:15;;;;;;;34.63;20.13;;;0.20;99.90;;;;;;5044434;28;20033;-38
2023/01/29 05:34:41;;;;;;;36.47;18.38;;;0.20;99.90;;;;;;5042646;28;20112;-38
2023/01/29 05:37:08;;;;;;;40.13;19.60;;;0.30;99.90;;;;;;5038395;28;20299;-49
2023/01/29 05:39:34;;;;;;;35.72;18.52;;;0.20;99.90;;;;;;5034337;28;20057;-38
2023/01/29 05:42:00;;;;;;;39.70;19.70;;;0.20;99.90;;;;;;5032422;28;20061;-50
2023/01/29 05:44:25;;;;;;;43.38;20.50;;;0.20;99.90;;;;;;5041782;28;20013;-49
2023/01/29 05:46:51;;;;;;;39.45;18.75;;;0.20;99.90;;;;;;5039258;28;20028;-38
2023/01/29 05:49:19;;;;;;;39.28;19.38;;;0.20;99.90;;;;;;5039586;28;20032;-48
2023/01/29 05:51:44;;;;;;;42.17;20.33;;;0.20;99.90;;;;;;5046308;28;20507;-39
2023/01/29 05:54:11;;;;;;;39.30;19.15;;;0.20;99.90;;;;;;5041739;28;20029;-39
2023/01/29 05:56:38;;;;;;;38.95;20.52;;;0.20;99.90;;;;;;5039857;28;20390;-46
2023/01/29 05:59:03;;;;;;;40.65;19.40;;;0.30;99.90;;;;;;5038581;28;20027;-39
2023/01/29 06:01:29;;;;;;;37.70;19.27;;;0.30;99.90;;;;;;5035754;28;20026;-47
2023/01/29 06:03:54;;;;;;;37.30;19.23;;;0.30;99.90;;;;;;5032011;28;20025;-39
2023/01/29 06:06:20;;;;;;;37.60;18.50;;;0.40;99.90;;;;;;5038300;28;20025;-39
2023/01/29 06:08:46;;;;;;;37.13;18.58;;;0.40;99.90;;;;;;5044169;28;20031;-40
2023/01/29 06:11:13;;;;;;;42.50;20.00;;;0.40;99.90;;;;;;5033451;28;20125;-40
2023/01/29 06:13:39;;;;;;;37.28;19.65;;;0.40;99.90;;;;;;5032305;28;20438;-48
2023/01/29 06:16:06;;;;;;;38.20;18.52;;;0.40;99.90;;;;;;5033584;28;20030;-39
2023/01/29 06:18:32;;;;;;;38.78;18.80;;;0.50;99.90;;;;;;5039269;28;20022;-40
2023/01/29 06:21:02;;;;;;;31.73;17.25;;;0.50;99.90;;;;;;5035733;28;20115;-42
2023/01/29 06:23:28;;;;;;;36.70;18.58;;;0.50;99.90;;;;;;5037216;28;20017;-40
2023/01/29 06:25:58;;;;;;;38.25;19.00;;;0.50;99.90;;;;;;5034022;28;20030;-40
2023/01/29 06:28:23;;;;;;;41.25;20.40;;;0.50;99.90;;;;;;5037513;28;20103;-39
2023/01/29 06:30:49;;;;;;;39.75;19.20;;;0.50;99.90;;;;;;5045067;28;21077;-40
2023/01/29 06:33:14;;;;;;;39.15;20.05;;;0.50;99.90;;;;;;5040289;28;20473;-49
2023/01/29 06:35:40;;;;;;;40.10;20.30;;;0.50;99.90;;;;;;5045920;28;20107;-48
2023/01/29 06:38:05;;;;;;;37.70;19.58;;;0.60;99.90;;;;;;5065911;28;20033;-49
2023/01/29 06:40:31;;;;;;;36.95;18.88;;;0.50;99.90;;;;;;5061836;28;20035;-48
2023/01/29 06:42:58;;;;;;;41.38;19.65;;;0.60;99.90;;;;;;5056305;28;20437;-48
2023/01/29 06:45:24;;;;;;;35.72;18.98;;;0.60;99.90;;;;;;5066094;28;20035;-51
2023/01/29 06:47:49;;;;;;;38.95;19.95;;;0.60;99.90;;;;;;5053512;28;20012;-49
2023/01/29 06:50:15;;;;;;;36.70;19.13;;;0.60;99.90;;;;;;5062813;28;20082;-49
2023/01/29 06:52:41;;;;;;;39.63;20.63;;;0.70;99.90;;;;;;5058093;28;20647;-48
2023/01/29 06:55:07;;;;;;;45.42;21.27;;;0.70;99.90;;;;;;5064621;28;20024;-48
2023/01/29 06:57:32;;;;;;;38.72;19.38;;;0.60;99.90;;;;;;5052876;28;20028;-49
2023/01/29 06:59:58;;;;;;;35.10;19.40;;;0.70;99.90;;;;;;5062131;28;20390;-51
2023/01/29 07:02:23;;;;;;;40.17;20.35;;;0.60;99.90;;;;;;5056211;28;20490;-47
2023/01/29 07:04:49;;;;;;;44.67;21.20;;;0.60;99.90;;;;;;5049432;28;20096;-50
2023/01/29 07:07:14;;;;;;;38.25;19.05;;;0.60;99.90;;;;;;5048278;28;20057;-48
2023/01/29 07:09:41;;;;;;;46.60;19.35;;;0.70;99.90;;;;;;5046198;28;20472;-49
2023/01/29 07:12:08;;;;;;;39.53;20.33;;;0.70;99.90;;;;;;5049342;28;20103;-49
2023/01/29 07:14:34;;;;;;;39.53;20.95;;;0.70;99.90;;;;;;5050470;28;20410;-40
2023/01/29 07:16:59;;;;;;;43.55;21.35;;;0.70;99.90;;;;;;5058945;28;20031;-40
2023/01/29 07:19:25;;;;;;;37.50;19.30;;;0.70;99.90;;;;;;5055708;28;20025;-40
2023/01/29 07:21:50;;;;;;;36.72;18.73;;;0.70;99.90;;;;;;5066070;28;20044;-40
2023/01/29 07:24:16;;;;;;;44.45;20.40;;;0.70;99.90;;;;;;5054075;28;20385;-40
2023/01/29 07:26:41;;;;;;;41.78;19.98;;;0.70;99.90;;;;;;5059583;28;20516;-40
2023/01/29 07:29:07;;;;;;;42.72;20.80;;;0.80;99.90;;;;;;5060932;28;20033;-40
2023/01/29 07:31:33;;;;;;;43.63;20.60;;;0.80;99.90;;;;;;5054521;28;20048;-40
2023/01/29 07:33:58;;;;;;;39.67;19.92;;;0.80;99.90;;;;;;5053272;28;20016;-40
2023/01/29 07:36:24;;;;;;;41.55;20.35;;;0.70;99.90;;;;;;5048710;28;20147;-39
2023/01/29 07:38:50;;;;;;;40.30;21.67;;;0.80;99.90;;;;;;5045878;28;20096;-39
2023/01/29 07:41:16;;;;;;;39.85;19.08;;;0.80;99.90;;;;;;5041931;28;20025;-48
2023/01/29 07:43:42;;;;;;;42.50;20.50;;;0.80;99.90;;;;;;5039807;28;20029;-49
2023/01/29 07:46:07;;;;;;;40.45;20.05;;;0.90;99.90;;;;;;5044222;28;20070;-49
2023/01/29 07:48:34;;;;;;;38.15;20.23;;;1.00;99.90;;;;;;5051335;28;20402;-49
2023/01/29 07:50:59;;;;;;;42.83;19.35;;;1.00;99.90;;;;;;5041736;28;20041;-48
2023/01/29 07:53:27;;;;;;;40.97;19.52;;;1.10;99.90;;;;;;5043585;28;20103;-50
2023/01/29 07:55:52;;;;;;;39.33;20.25;;;1.10;99.90;;;;;;5047450;28;20067;-40
2023/01/29 07:58:18;;;;;;;38.72;19.15;;;1.10;99.90;;;;;;5062943;28;20041;-48
2023/01/29 08:00:43;;;;;;;42.13;20.88;;;1.00;99.90;;;;;;5049030;28;20485;-48
2023/01/29 08:03:12;;;;;;;39.78;19.85;;;1.10;99.90;;;;;;5054830;28;20035;-48
2023/01/29 08:05:38;;;;;;;47.83;22.50;;;1.10;99.90;;;;;;5046689;28;20070;-48
2023/01/29 08:08:04;;;;;;;42.83;20.88;;;1.20;99.90;;;;;;5065006;28;20028;-48
2023/01/29 08:10:30;;;;;;;40.95;20.35;;;1.20;99.90;;;;;;5053964;28;20212;-48
2023/01/29 08:12:56;;;;;;;37.08;19.23;;;1.20;99.90;;;;;;5058836;28;20025;-49
2023/01/29 08:15:22;;;;;;;39.92;20.10;;;1.20;99.90;;;;;;5061994;28;20470;-48
2023/01/29 08:17:49;;;;;;;43.13;21.38;;;1.30;99.90;;;;;;5050944;28;20021;-48
2023/01/29 08:20:14;;;;;;;38.38;20.40;;;1.30;99.90;;;;;;5034352;28;20053;-48
2023/01/29 08:22:40;;;;;;;40.38;20.25;;;1.30;99.90;;;;;;5043273;28;20521;-48
2023/01/29 08:25:06;;;;;;;42.55;21.08;;;1.30;99.90;;;;;;5057849;28;20050;-50
2023/01/29 08:27:31;;;;;;;41.95;21.25;;;1.30;99.90;;;;;;5062078;28;20032;-49
2023/01/29 08:29:57;;;;;;;40.95;20.73;;;1.40;99.90;;;;;;5050126;28;20390;-48
2023/01/29 08:32:22;;;;;;;41.92;21.38;;;1.40;99.90;;;;;;5055878;28;20436;-47
2023/01/29 08:34:48;;;;;;;45.72;22.17;;;1.40;99.90;;;;;;5055238;28;20024;-48
2023/01/29 08:37:13;;;;;;;42.97;22.48;;;1.40;99.90;;;;;;5059390;28;20031;-48
2023/01/29 08:39:39;;;;;;;40.28;21.20;;;1.50;99.90;;;;;;5046903;28;20029;-47
2023/01/29 08:42:04;;;;;;;45.13;20.67;;;1.40;99.90;;;;;;5063169;28;20033;-49
2023/01/29 08:44:30;;;;;;;42.83;20.70;;;1.40;99.90;;;;;;5059258;28;20106;-50
2023/01/29 08:46:55;;;;;;;49.70;21.67;;;1.40;99.90;;;;;;5057375;28;20016;-48
2023/01/29 08:49:21;;;;;;;42.03;20.63;;;1.40;99.90;;;;;;5045908;28;20105;-48
2023/01/29 08:51:46;;;;;;;39.15;21.48;;;1.40;99.90;;;;;;5063674;28;20028;-47
2023/01/29 08:54:12;;;;;;;42.90;21.50;;;1.40;99.90;;;;;;5051226;28;20056;-48
2023/01/29 08:56:37;;;;;;;41.70;22.85;;;1.60;99.90;;;;;;5058349;28;20505;-47
2023/01/29 08:59:03;;;;;;;44.97;21.70;;;1.50;99.90;;;;;;5058340;28;20385;-49
2023/01/29 09:01:29;;;;;;;46.25;22.60;;;1.50;99.90;;;;;;5054945;28;20465;-48
2023/01/29 09:03:54;;;;;;;41.55;21.65;;;1.50;99.90;;;;;;5044135;28;20038;-48
2023/01/29 09:06:20;;;;;;;49.22;22.88;;;1.50;99.90;;;;;;5044339;28;20056;-48
2023/01/29 09:08:46;;;;;;;42.33;22.23;;;1.60;99.90;;;;;;5046971;28;20100;-48
2023/01/29 09:11:12;;;;;;;43.33;21.73;;;1.60;99.90;;;;;;5045683;28;20025;-49
2023/01/29 09:13:37;;;;;;;43.20;22.25;;;1.60;99.90;;;;;;5038013;28;20067;-47
2023/01/29 09:16:03;;;;;;;50.90;23.55;;;1.60;99.90;;;;;;5061285;28;20362;-48
2023/01/29 09:18:29;;;;;;;45.25;23.52;;;1.70;99.90;;;;;;5067234;28;20040;-49
2023/01/29 09:20:55;;;;;;;47.03;24.10;;;1.60;99.90;;;;;;5066992;28;20033;-47
2023/01/29 09:23:21;;;;;;;50.40;23.98;;;1.60;99.90;;;;;;5045614;28;20052;-51
2023/01/29 09:25:46;;;;;;;56.25;25.77;;;1.70;99.90;;;;;;5040343;28;20490;-48
2023/01/29 09:28:12;;;;;;;51.70;24.92;;;1.60;99.90;;;;;;5043121;28;20351;-48
2023/01/29 09:30:38;;;;;;;49.00;24.60;;;1.60;99.90;;;;;;5042169;28;20029;-46
2023/01/29 09:33:05;;;;;;;49.70;24.20;;;1.60;99.90;;;;;;5048223;28;20448;-47
2023/01/29 09:35:31;;;;;;;46.05;23.05;;;1.60;99.90;;;;;;5045873;28;20210;-49
2023/01/29 09:37:56;;;;;;;49.78;23.55;;;1.60;99.90;;;;;;5050843;28;20396;-49
2023/01/29 09:40:59;;;;;;;51.00;24.67;;;1.60;99.90;;;;;;5050758;28;20078;-48
2023/01/29 09:43:47;;;;;;;50.30;24.23;;;1.60;99.90;;;;;;5050389;28;20083;-49
2023/01/29 09:46:20;;;;;;;56.10;25.02;;;1.50;99.90;;;;;;5050300;28;20031;-49
2023/01/29 09:48:47;;;;;;;52.10;24.75;;;1.50;99.90;;;;;;5047074;28;20025;-47
2023/01/29 09:51:43;;;;;;;59.63;25.85;;;1.50;99.90;;;;;;5050596;28;20063;-47
2023/01/29 09:54:27;;;;;;;51.10;24.52;;;1.50;99.90;;;;;;5050257;28;20023;-54
2023/01/29 09:56:55;;;;;;;54.58;25.08;;;1.50;99.90;;;;;;5049196;28;20051;-48
2023/01/29 09:59:24;;;;;;;52.92;26.00;;;1.50;99.90;;;;;;5050697;28;20029;-50
2023/01/29 10:02:21;;;;;;;51.78;25.63;;;1.40;99.90;;;;;;5051135;28;20445;-47
2023/01/29 10:04:59;;;;;;;56.97;27.00;;;1.40;99.90;;;;;;5039329;28;20505;-48
2023/01/29 10:08:08;;;;;;;51.67;25.30;;;1.40;99.90;;;;;;5049955;28;20148;-48
2023/01/29 10:10:47;;;;;;;56.55;24.98;;;1.50;99.90;;;;;;5050319;28;20029;-51
2023/01/29 10:13:28;;;;;;;51.10;25.17;;;1.50;99.90;;;;;;5050155;28;20059;-49
2023/01/29 10:16:31;;;;;;;52.58;25.77;;;1.50;99.90;;;;;;5040051;28;20045;-49
2023/01/29 10:19:06;;;;;;;52.67;25.95;;;1.60;99.90;;;;;;5064123;28;20182;-48
2023/01/29 10:21:47;;;;;;;51.67;23.55;;;1.60;99.90;;;;;;5070449;28;20252;-49
2023/01/29 10:24:51;;;;;;;47.50;25.17;;;1.70;99.90;;;;;;5047562;28;20032;-40
2023/01/29 10:27:17;;;;;;;53.85;26.33;;;1.70;99.90;;;;;;5026037;28;20041;-40
2023/01/29 10:29:45;;;;;;;49.75;24.15;;;1.80;99.90;;;;;;5047952;28;20494;-40
2023/01/29 10:32:21;;;;;;;52.10;24.95;;;1.80;99.90;;;;;;5041508;28;20279;-40
2023/01/29 10:34:55;;;;;;;49.25;25.08;;;1.80;99.90;;;;;;5037073;28;20068;-40
2023/01/29 10:37:39;;;;;;;52.22;24.40;;;1.90;99.90;;;;;;5049832;28;20009;-40
2023/01/29 10:40:42;;;;;;;51.17;25.45;;;1.90;99.90;;;;;;5050518;28;20062;-40
2023/01/29 10:43:19;;;;;;;53.92;24.63;;;1.90;99.90;;;;;;5038569;28;20025;-40
2023/01/29 10:45:52;;;;;;;55.92;25.23;;;1.90;99.90;;;;;;5043301;28;20437;-40
2023/01/29 10:48:17;;;;;;;54.88;24.70;;;1.90;99.90;;;;;;5056248;28;20024;-40
2023/01/29 10:51:14;;;;;;;44.92;22.95;;;1.90;99.90;;;;;;5049923;28;20028;-41
2023/01/29 10:53:56;;;;;;;51.10;24.73;;;2.00;99.90;;;;;;5038734;28;20442;-40
2023/01/29 10:56:21;;;;;;;49.35;25.08;;;2.00;99.90;;;;;;5048793;28;20100;-41
2023/01/29 10:59:25;;;;;;;52.95;26.15;;;2.00;99.90;;;;;;5038753;28;20108;-40
2023/01/29 11:01:50;;;;;;;48.88;23.08;;;2.00;99.90;;;;;;4989865;28;20026;-41
2023/01/29 11:04:16;;;;;;;44.65;22.63;;;2.00;99.90;;;;;;5032568;28;20098;-41
2023/01/29 11:06:42;;;;;;;46.85;23.08;;;2.10;99.90;;;;;;5039738;28;20167;-40
2023/01/29 11:09:49;;;;;;;50.25;23.27;;;2.20;99.90;;;;;;5042182;28;20634;-40
2023/01/29 11:12:16;;;;;;;45.08;22.02;;;2.20;99.90;;;;;;5035898;28;20009;-43
2023/01/29 11:14:51;;;;;;;48.58;22.77;;;2.20;99.90;;;;;;5036234;28;20431;-40
2023/01/29 11:17:20;;;;;;;46.67;23.15;;;2.30;99.90;;;;;;5044590;28;20052;-41
2023/01/29 11:19:47;;;;;;;46.35;23.17;;;2.30;99.90;;;;;;5044890;28;20488;-40
2023/01/29 11:22:17;;;;;;;47.22;22.95;;;2.30;99.90;;;;;;5044184;28;20033;-40
2023/01/29 11:24:43;;;;;;;49.92;23.85;;;2.30;99.90;;;;;;5035884;28;20470;-41
2023/01/29 11:27:21;;;;;;;49.97;23.70;;;2.30;99.90;;;;;;5036408;28;20040;-39
2023/01/29 11:29:48;;;;;;;50.05;24.10;;;2.40;99.90;;;;;;5043232;28;20091;-40
2023/01/29 11:32:25;;;;;;;51.72;23.70;;;2.30;99.90;;;;;;5046243;28;20062;-39
2023/01/29 11:35:09;;;;;;;49.08;23.30;;;2.30;99.90;;;;;;5043928;28;20052;-40
2023/01/29 11:37:38;;;;;;;49.58;24.02;;;2.40;99.90;;;;;;5045591;28;20021;-41
2023/01/29 11:40:19;;;;;;;46.38;23.13;;;2.50;99.90;;;;;;5044784;28;20371;-41
2023/01/29 11:42:46;;;;;;;46.60;23.55;;;2.60;99.90;;;;;;5036352;28;20030;-41
2023/01/29 11:45:26;;;;;;;46.70;23.15;;;2.60;99.90;;;;;;5030580;28;20030;-41
2023/01/29 11:47:53;;;;;;;41.22;21.35;;;2.60;99.90;;;;;;5030681;28;20131;-41
2023/01/29 11:50:23;;;;;;;39.95;21.05;;;2.70;99.90;;;;;;5030894;28;20040;-40
2023/01/29 11:52:48;;;;;;;44.58;21.92;;;2.70;99.90;;;;;;5030932;28;20083;-40
2023/01/29 11:55:23;;;;;;;50.97;24.42;;;2.80;99.90;;;;;;5030378;28;20426;-40
2023/01/29 11:58:01;;;;;;;46.97;23.52;;;2.80;99.90;;;;;;5029493;28;20108;-40
2023/01/29 12:00:32;;;;;;;69.72;33.47;;;2.70;99.90;;;;;;5057446;28;20036;-40
2023/01/29 12:03:12;;;;;;;40.95;21.40;;;2.70;99.90;;;;;;5052711;28;20082;-41
2023/01/29 12:05:39;;;;;;;45.37;22.53;;;2.70;99.90;;;;;;5048448;28;20482;-41
2023/01/29 12:08:15;;;;;;;40.50;21.17;;;2.80;99.90;;;;;;5048864;28;20032;-40
2023/01/29 12:10:42;;;;;;;45.03;22.73;;;2.90;99.90;;;;;;5046243;28;20028;-49
2023/01/29 12:13:19;;;;;;;41.45;22.83;;;2.90;99.90;;;;;;5039671;28;20394;-51
2023/01/29 12:15:46;;;;;;;50.70;24.42;;;2.90;99.90;;;;;;5037603;28;20029;-40
2023/01/29 12:18:29;;;;;;;46.28;22.77;;;2.90;99.90;;;;;;5037362;28;20483;-48
2023/01/29 12:21:00;;;;;;;45.88;23.58;;;2.90;99.90;;;;;;5038926;28;20029;-48
2023/01/29 12:23:49;;;;;;;46.13;22.33;;;2.90;99.90;;;;;;5048734;28;20107;-50
2023/01/29 12:26:38;;;;;;;50.10;21.00;;;2.90;99.90;;;;;;5046989;28;20028;-49
2023/01/29 12:29:34;;;;;;;46.17;21.65;;;2.90;99.90;;;;;;5051037;28;20085;-49
2023/01/29 12:32:10;;;;;;;47.30;23.92;;;2.80;99.90;;;;;;5049841;28;20086;-51
2023/01/29 12:34:47;;;;;;;43.05;21.90;;;2.80;99.90;;;;;;5048317;28;20017;-50
2023/01/29 12:37:39;;;;;;;43.20;22.05;;;2.80;99.90;;;;;;5047742;28;20048;-51
2023/01/29 12:40:16;;;;;;;48.03;21.40;;;2.80;99.90;;;;;;5048535;28;20477;-49
2023/01/29 12:42:47;;;;;;;44.90;22.42;;;2.80;99.90;;;;;;5048490;28;20104;-48
2023/01/29 12:45:18;;;;;;;44.40;22.40;;;2.80;99.90;;;;;;5048350;28;20101;-50
2023/01/29 12:47:52;;;;;;;44.97;21.20;;;2.80;99.90;;;;;;5048202;28;20031;-51
2023/01/29 12:50:26;;;;;;;46.95;21.75;;;2.80;99.90;;;;;;5047032;28;20119;-50
2023/01/29 12:53:04;;;;;;;45.00;21.50;;;2.70;99.90;;;;;;5048646;28;20021;-52
2023/01/29 12:55:44;;;;;;;47.42;20.52;;;2.80;99.90;;;;;;5048067;28;20029;-52
2023/01/29 12:58:27;;;;;;;52.03;23.15;;;2.70;99.90;;;;;;5043779;28;20108;-52
2023/01/29 13:00:55;;;;;;;41.30;21.65;;;2.70;99.90;;;;;;5050255;28;20025;-49
2023/01/29 13:03:38;;;;;;;42.38;20.10;;;2.70;99.90;;;;;;5049677;28;20013;-49
2023/01/29 13:06:14;;;;;;;45.80;22.08;;;2.70;99.90;;;;;;5048642;28;20025;-50
2023/01/29 13:08:57;;;;;;;47.67;22.15;;;2.70;99.90;;;;;;5052223;28;20037;-51
2023/01/29 13:11:28;;;;;;;41.38;21.05;;;2.70;99.90;;;;;;5052325;28;20103;-48
2023/01/29 13:14:05;;;;;;;39.70;20.33;;;2.70;99.90;;;;;;5045839;28;20123;-50
2023/01/29 13:16:39;;;;;;;42.40;21.20;;;2.60;99.90;;;;;;5036317;28;20029;-49
2023/01/29 13:19:26;;;;;;;45.72;21.20;;;2.50;99.90;;;;;;5049946;28;20310;-50
2023/01/29 13:21:53;;;;;;;45.47;21.73;;;2.60;99.90;;;;;;5049671;28;20108;-52
2023/01/29 13:24:23;;;;;;;44.00;22.75;;;2.70;99.90;;;;;;5051342;28;20055;-49
2023/01/29 13:26:49;;;;;;;46.13;22.20;;;2.70;99.90;;;;;;5050947;28;20025;-50